sensor_id;sensor_type;location;lat;lon;timestamp;temperature;humidity
47845;DHT22;33605;48.822;8.796;2023-03-11T00:01:39;5.20;44.80
47845;DHT22;33605;48.822;8.796;2023-03-11T00:04:05;5.20;44.90
47845;DHT22;33605;48.822;8.796;2023-03-11T00:06:33;5.20;44.90
47845;DHT22;33605;48.822;8.796;2023-03-11T00:09:00;5.20;44.90
47845;DHT22;33605;48.822;8.796;2023-03-11T00:11:26;5.20;45.00
47845;DHT22;33605;48.822;8.796;2023-03-11T00:13:51;5.20;45.20
47845;DHT22;33605;48.822;8.796;2023-03-11T00:16:17;5.20;45.30
47845;DHT22;33605;48.822;8.796;2023-03-11T00:18:43;5.20;45.40
47845;DHT22;33605;48.822;8.796;2023-03-11T00:21:16;5.20;46.20
47845;DHT22;33605;48.822;8.796;2023-03-11T00:23:43;5.10;45.70
47845;DHT22;33605;48.822;8.796;2023-03-11T00:26:09;5.10;45.80
47845;DHT22;33605;48.822;8.796;2023-03-11T00:28:35;5.10;45.80
47845;DHT22;33605;48.822;8.796;2023-03-11T00:31:01;5.10;46.00
47845;DHT22;33605;48.822;8.796;2023-03-11T00:33:27;5.10;46.10
47845;DHT22;33605;48.822;8.796;2023-03-11T00:35:53;5.10;46.20
47845;DHT22;33605;48.822;8.796;2023-03-11T00:38:18;5.10;46.20
47845;DHT22;33605;48.822;8.796;2023-03-11T00:40:45;5.10;46.40
47845;DHT22;33605;48.822;8.796;2023-03-11T00:43:12;5.00;46.40
47845;DHT22;33605;48.822;8.796;2023-03-11T00:45:39;5.10;46.50
47845;DHT22;33605;48.822;8.796;2023-03-11T00:48:05;5.10;46.80
47845;DHT22;33605;48.822;8.796;2023-03-11T00:50:34;5.00;46.80
47845;DHT22;33605;48.822;8.796;2023-03-11T00:53:01;5.10;47.10
47845;DHT22;33605;48.822;8.796;2023-03-11T00:55:29;5.10;47.30
47845;DHT22;33605;48.822;8.796;2023-03-11T00:57:58;5.10;47.30
47845;DHT22;33605;48.822;8.796;2023-03-11T01:00:25;5.10;47.30
47845;DHT22;33605;48.822;8.796;2023-03-11T01:02:53;5.10;47.30
47845;DHT22;33605;48.822;8.796;2023-03-11T01:05:21;5.10;47.20
47845;DHT22;33605;48.822;8.796;2023-03-11T01:07:47;5.10;47.20
47845;DHT22;33605;48.822;8.796;2023-03-11T01:10:13;5.10;47.30
47845;DHT22;33605;48.822;8.796;2023-03-11T01:12:39;5.10;47.10
47845;DHT22;33605;48.822;8.796;2023-03-11T01:15:06;5.10;46.70
47845;DHT22;33605;48.822;8.796;2023-03-11T01:17:32;5.10;46.60
47845;DHT22;33605;48.822;8.796;2023-03-11T01:19:58;5.10;46.80
47845;DHT22;33605;48.822;8.796;2023-03-11T01:22:24;5.10;46.90
47845;DHT22;33605;48.822;8.796;2023-03-11T01:24:49;5.00;46.80
47845;DHT22;33605;48.822;8.796;2023-03-11T01:27:15;5.10;47.00
47845;DHT22;33605;48.822;8.796;2023-03-11T01:29:40;5.10;47.10
47845;DHT22;33605;48.822;8.796;2023-03-11T01:32:06;5.10;47.30
47845;DHT22;33605;48.822;8.796;2023-03-11T01:34:32;5.10;47.40
47845;DHT22;33605;48.822;8.796;2023-03-11T01:37:01;5.10;47.30
47845;DHT22;33605;48.822;8.796;2023-03-11T01:39:27;5.10;47.10
47845;DHT22;33605;48.822;8.796;2023-03-11T01:41:53;5.00;46.80
47845;DHT22;33605;48.822;8.796;2023-03-11T01:44:20;5.10;46.50
47845;DHT22;33605;48.822;8.796;2023-03-11T01:49:19;5.00;46.40
47845;DHT22;33605;48.822;8.796;2023-03-11T01:51:47;5.00;46.50
47845;DHT22;33605;48.822;8.796;2023-03-11T01:54:31;5.00;46.20
47845;DHT22;33605;48.822;8.796;2023-03-11T01:56:58;4.90;46.00
47845;DHT22;33605;48.822;8.796;2023-03-11T01:59:29;4.90;46.10
47845;DHT22;33605;48.822;8.796;2023-03-11T02:02:10;4.90;46.00
47845;DHT22;33605;48.822;8.796;2023-03-11T02:04:39;4.90;45.90
47845;DHT22;33605;48.822;8.796;2023-03-11T02:07:07;4.90;45.70
47845;DHT22;33605;48.822;8.796;2023-03-11T02:09:33;4.90;45.80
47845;DHT22;33605;48.822;8.796;2023-03-11T02:11:59;4.80;45.60
47845;DHT22;33605;48.822;8.796;2023-03-11T02:14:28;4.80;45.20
47845;DHT22;33605;48.822;8.796;2023-03-11T02:16:54;4.80;44.90
47845;DHT22;33605;48.822;8.796;2023-03-11T02:19:48;4.70;44.70
47845;DHT22;33605;48.822;8.796;2023-03-11T02:22:17;4.80;44.80
47845;DHT22;33605;48.822;8.796;2023-03-11T02:27:41;4.70;44.00
47845;DHT22;33605;48.822;8.796;2023-03-11T02:30:09;4.70;43.90
47845;DHT22;33605;48.822;8.796;2023-03-11T02:32:36;4.70;43.90
47845;DHT22;33605;48.822;8.796;2023-03-11T02:35:03;4.70;43.80
47845;DHT22;33605;48.822;8.796;2023-03-11T02:37:29;4.70;43.70
47845;DHT22;33605;48.822;8.796;2023-03-11T02:39:55;4.70;43.40
47845;DHT22;33605;48.822;8.796;2023-03-11T02:42:40;4.70;43.20
47845;DHT22;33605;48.822;8.796;2023-03-11T02:45:09;4.60;43.00
47845;DHT22;33605;48.822;8.796;2023-03-11T02:47:37;4.60;42.90
47845;DHT22;33605;48.822;8.796;2023-03-11T02:50:04;4.60;42.90
47845;DHT22;33605;48.822;8.796;2023-03-11T02:52:32;4.60;42.80
47845;DHT22;33605;48.822;8.796;2023-03-11T02:54:59;4.60;42.80
47845;DHT22;33605;48.822;8.796;2023-03-11T02:57:25;4.60;42.90
47845;DHT22;33605;48.822;8.796;2023-03-11T02:59:50;4.60;43.00
47845;DHT22;33605;48.822;8.796;2023-03-11T03:02:16;4.50;42.60
47845;DHT22;33605;48.822;8.796;2023-03-11T03:04:42;4.50;42.60
47845;DHT22;33605;48.822;8.796;2023-03-11T03:07:08;4.50;42.60
47845;DHT22;33605;48.822;8.796;2023-03-11T03:09:34;4.40;42.50
47845;DHT22;33605;48.822;8.796;2023-03-11T03:12:02;4.40;42.50
47845;DHT22;33605;48.822;8.796;2023-03-11T03:14:28;4.40;42.60
47845;DHT22;33605;48.822;8.796;2023-03-11T03:16:54;4.40;42.60
47845;DHT22;33605;48.822;8.796;2023-03-11T03:19:20;4.40;42.70
47845;DHT22;33605;48.822;8.796;2023-03-11T03:21:45;4.30;42.60
47845;DHT22;33605;48.822;8.796;2023-03-11T03:24:11;4.30;42.60
47845;DHT22;33605;48.822;8.796;2023-03-11T03:26:37;4.30;42.60
47845;DHT22;33605;48.822;8.796;2023-03-11T03:29:04;4.30;42.60
47845;DHT22;33605;48.822;8.796;2023-03-11T03:31:29;4.30;42.60
47845;DHT22;33605;48.822;8.796;2023-03-11T03:33:55;4.30;42.70
47845;DHT22;33605;48.822;8.796;2023-03-11T03:36:20;4.30;42.60
47845;DHT22;33605;48.822;8.796;2023-03-11T03:38:46;4.30;42.70
47845;DHT22;33605;48.822;8.796;2023-03-11T03:41:15;4.30;42.70
47845;DHT22;33605;48.822;8.796;2023-03-11T03:43:41;4.30;42.60
47845;DHT22;33605;48.822;8.796;2023-03-11T03:46:06;4.30;42.50
47845;DHT22;33605;48.822;8.796;2023-03-11T03:48:33;4.30;42.50
47845;DHT22;33605;48.822;8.796;2023-03-11T03:51:03;4.20;42.50
47845;DHT22;33605;48.822;8.796;2023-03-11T03:53:30;4.20;42.50
47845;DHT22;33605;48.822;8.796;2023-03-11T03:56:08;4.20;42.60
47845;DHT22;33605;48.822;8.796;2023-03-11T03:58:34;4.20;42.70
47845;DHT22;33605;48.822;8.796;2023-03-11T04:01:00;4.20;42.70
47845;DHT22;33605;48.822;8.796;2023-03-11T04:03:26;4.20;42.80
47845;DHT22;33605;48.822;8.796;2023-03-11T04:05:52;4.10;42.70
47845;DHT22;33605;48.822;8.796;2023-03-11T04:08:19;4.10;42.90
47845;DHT22;33605;48.822;8.796;2023-03-11T04:10:55;4.10;43.00
47845;DHT22;33605;48.822;8.796;2023-03-11T04:13:21;4.00;42.90
47845;DHT22;33605;48.822;8.796;2023-03-11T04:15:47;4.00;42.90
47845;DHT22;33605;48.822;8.796;2023-03-11T04:18:12;4.00;42.90
47845;DHT22;33605;48.822;8.796;2023-03-11T04:20:38;4.00;42.90
47845;DHT22;33605;48.822;8.796;2023-03-11T04:23:04;4.00;42.90
47845;DHT22;33605;48.822;8.796;2023-03-11T04:25:29;4.00;42.90
47845;DHT22;33605;48.822;8.796;2023-03-11T04:27:55;3.90;42.70
47845;DHT22;33605;48.822;8.796;2023-03-11T04:30:21;3.90;42.70
47845;DHT22;33605;48.822;8.796;2023-03-11T04:32:47;3.90;42.70
47845;DHT22;33605;48.822;8.796;2023-03-11T04:35:12;3.90;42.70
47845;DHT22;33605;48.822;8.796;2023-03-11T04:37:38;3.80;42.60
47845;DHT22;33605;48.822;8.796;2023-03-11T04:40:04;3.80;42.60
47845;DHT22;33605;48.822;8.796;2023-03-11T04:42:31;3.80;42.50
47845;DHT22;33605;48.822;8.796;2023-03-11T04:44:57;3.80;42.50
47845;DHT22;33605;48.822;8.796;2023-03-11T04:47:23;3.80;42.50
47845;DHT22;33605;48.822;8.796;2023-03-11T04:49:48;3.70;42.40
47845;DHT22;33605;48.822;8.796;2023-03-11T04:52:14;3.70;42.30
47845;DHT22;33605;48.822;8.796;2023-03-11T04:54:40;3.70;42.20
47845;DHT22;33605;48.822;8.796;2023-03-11T04:57:07;3.70;42.20
47845;DHT22;33605;48.822;8.796;2023-03-11T04:59:33;3.70;42.30
47845;DHT22;33605;48.822;8.796;2023-03-11T05:01:58;3.60;42.30
47845;DHT22;33605;48.822;8.796;2023-03-11T05:04:24;3.60;42.30
47845;DHT22;33605;48.822;8.796;2023-03-11T05:06:49;3.60;42.40
47845;DHT22;33605;48.822;8.796;2023-03-11T05:09:15;3.60;42.40
47845;DHT22;33605;48.822;8.796;2023-03-11T05:11:41;3.60;42.40
47845;DHT22;33605;48.822;8.796;2023-03-11T05:16:41;3.60;42.40
47845;DHT22;33605;48.822;8.796;2023-03-11T05:19:06;3.60;42.40
47845;DHT22;33605;48.822;8.796;2023-03-11T05:21:52;3.60;42.40
47845;DHT22;33605;48.822;8.796;2023-03-11T05:24:18;3.60;42.40
47845;DHT22;33605;48.822;8.796;2023-03-11T05:26:44;3.60;42.50
47845;DHT22;33605;48.822;8.796;2023-03-11T05:29:10;3.60;42.50
47845;DHT22;33605;48.822;8.796;2023-03-11T05:31:36;3.50;42.30
47845;DHT22;33605;48.822;8.796;2023-03-11T05:34:01;3.50;42.40
47845;DHT22;33605;48.822;8.796;2023-03-11T05:36:27;3.50;42.40
47845;DHT22;33605;48.822;8.796;2023-03-11T05:38:52;3.50;42.40
47845;DHT22;33605;48.822;8.796;2023-03-11T05:41:18;3.50;42.40
47845;DHT22;33605;48.822;8.796;2023-03-11T05:43:45;3.50;42.30
47845;DHT22;33605;48.822;8.796;2023-03-11T05:46:11;3.50;42.30
47845;DHT22;33605;48.822;8.796;2023-03-11T05:48:37;3.50;42.30
47845;DHT22;33605;48.822;8.796;2023-03-11T05:51:07;3.50;42.30
47845;DHT22;33605;48.822;8.796;2023-03-11T05:53:33;3.50;42.30
47845;DHT22;33605;48.822;8.796;2023-03-11T05:55:59;3.50;42.30
47845;DHT22;33605;48.822;8.796;2023-03-11T05:58:29;3.40;42.30
47845;DHT22;33605;48.822;8.796;2023-03-11T06:00:55;3.50;42.40
47845;DHT22;33605;48.822;8.796;2023-03-11T06:03:21;3.40;42.40
47845;DHT22;33605;48.822;8.796;2023-03-11T06:05:48;3.40;42.40
47845;DHT22;33605;48.822;8.796;2023-03-11T06:08:15;3.50;42.50
47845;DHT22;33605;48.822;8.796;2023-03-11T06:10:41;3.40;42.50
47845;DHT22;33605;48.822;8.796;2023-03-11T06:13:07;3.50;42.50
47845;DHT22;33605;48.822;8.796;2023-03-11T06:15:34;3.50;42.50
47845;DHT22;33605;48.822;8.796;2023-03-11T06:18:00;3.50;42.50
47845;DHT22;33605;48.822;8.796;2023-03-11T06:20:26;3.50;42.50
47845;DHT22;33605;48.822;8.796;2023-03-11T06:22:52;3.50;42.50
47845;DHT22;33605;48.822;8.796;2023-03-11T06:25:18;3.50;42.50
47845;DHT22;33605;48.822;8.796;2023-03-11T06:27:47;3.50;42.50
47845;DHT22;33605;48.822;8.796;2023-03-11T06:30:15;3.50;42.50
47845;DHT22;33605;48.822;8.796;2023-03-11T06:32:43;3.50;42.60
47845;DHT22;33605;48.822;8.796;2023-03-11T06:35:09;3.60;42.70
47845;DHT22;33605;48.822;8.796;2023-03-11T06:37:35;3.60;42.60
47845;DHT22;33605;48.822;8.796;2023-03-11T06:40:02;3.60;42.60
47845;DHT22;33605;48.822;8.796;2023-03-11T06:42:29;3.60;42.70
47845;DHT22;33605;48.822;8.796;2023-03-11T06:44:55;3.70;42.70
47845;DHT22;33605;48.822;8.796;2023-03-11T06:47:21;3.70;43.40
47845;DHT22;33605;48.822;8.796;2023-03-11T06:49:46;3.70;42.60
47845;DHT22;33605;48.822;8.796;2023-03-11T06:52:12;3.80;42.60
47845;DHT22;33605;48.822;8.796;2023-03-11T06:54:37;3.80;42.60
47845;DHT22;33605;48.822;8.796;2023-03-11T06:57:06;3.90;42.80
47845;DHT22;33605;48.822;8.796;2023-03-11T06:59:32;3.90;42.70
47845;DHT22;33605;48.822;8.796;2023-03-11T07:01:58;3.90;42.60
47845;DHT22;33605;48.822;8.796;2023-03-11T07:04:23;4.00;42.60
47845;DHT22;33605;48.822;8.796;2023-03-11T07:06:49;4.00;42.40
47845;DHT22;33605;48.822;8.796;2023-03-11T07:09:14;4.00;42.30
47845;DHT22;33605;48.822;8.796;2023-03-11T07:11:40;4.10;42.40
47845;DHT22;33605;48.822;8.796;2023-03-11T07:14:05;4.10;42.40
47845;DHT22;33605;48.822;8.796;2023-03-11T07:16:31;4.10;42.40
47845;DHT22;33605;48.822;8.796;2023-03-11T07:18:58;4.20;42.50
47845;DHT22;33605;48.822;8.796;2023-03-11T07:21:26;4.20;42.60
47845;DHT22;33605;48.822;8.796;2023-03-11T07:23:56;4.30;42.60
47845;DHT22;33605;48.822;8.796;2023-03-11T07:26:23;4.30;42.60
47845;DHT22;33605;48.822;8.796;2023-03-11T07:28:49;4.40;42.50
47845;DHT22;33605;48.822;8.796;2023-03-11T07:31:18;4.40;42.90
47845;DHT22;33605;48.822;8.796;2023-03-11T07:33:45;4.50;42.10
47845;DHT22;33605;48.822;8.796;2023-03-11T07:36:14;4.60;41.80
47845;DHT22;33605;48.822;8.796;2023-03-11T07:38:40;4.60;41.50
47845;DHT22;33605;48.822;8.796;2023-03-11T07:41:06;4.60;41.40
47845;DHT22;33605;48.822;8.796;2023-03-11T07:43:33;4.70;41.40
47845;DHT22;33605;48.822;8.796;2023-03-11T07:46:13;4.70;41.40
47845;DHT22;33605;48.822;8.796;2023-03-11T07:48:41;4.80;41.50
47845;DHT22;33605;48.822;8.796;2023-03-11T07:51:14;4.90;41.30
47845;DHT22;33605;48.822;8.796;2023-03-11T07:53:40;5.00;41.40
47845;DHT22;33605;48.822;8.796;2023-03-11T07:56:06;5.10;40.90
47845;DHT22;33605;48.822;8.796;2023-03-11T07:58:32;5.20;40.90
47845;DHT22;33605;48.822;8.796;2023-03-11T08:01:10;5.30;40.50
47845;DHT22;33605;48.822;8.796;2023-03-11T08:03:37;5.40;40.00
47845;DHT22;33605;48.822;8.796;2023-03-11T08:06:14;5.40;40.10
47845;DHT22;33605;48.822;8.796;2023-03-11T08:08:40;5.50;40.10
47845;DHT22;33605;48.822;8.796;2023-03-11T08:11:05;5.60;40.20
47845;DHT22;33605;48.822;8.796;2023-03-11T08:13:32;5.70;40.00
47845;DHT22;33605;48.822;8.796;2023-03-11T08:15:57;5.80;39.80
47845;DHT22;33605;48.822;8.796;2023-03-11T08:18:23;5.90;39.80
47845;DHT22;33605;48.822;8.796;2023-03-11T08:20:49;5.90;39.70
47845;DHT22;33605;48.822;8.796;2023-03-11T08:23:14;6.10;39.90
47845;DHT22;33605;48.822;8.796;2023-03-11T08:25:40;6.20;39.90
47845;DHT22;33605;48.822;8.796;2023-03-11T08:30:33;6.30;39.70
47845;DHT22;33605;48.822;8.796;2023-03-11T08:32:59;6.50;39.40
47845;DHT22;33605;48.822;8.796;2023-03-11T08:35:25;6.60;39.50
47845;DHT22;33605;48.822;8.796;2023-03-11T08:37:51;6.70;38.50
47845;DHT22;33605;48.822;8.796;2023-03-11T08:40:17;6.80;37.90
47845;DHT22;33605;48.822;8.796;2023-03-11T08:42:44;6.90;37.60
47845;DHT22;33605;48.822;8.796;2023-03-11T08:45:13;6.90;37.30
47845;DHT22;33605;48.822;8.796;2023-03-11T08:47:39;7.00;37.40
47845;DHT22;33605;48.822;8.796;2023-03-11T08:50:08;7.10;37.20
47845;DHT22;33605;48.822;8.796;2023-03-11T08:52:34;7.10;36.60
47845;DHT22;33605;48.822;8.796;2023-03-11T08:55:00;7.10;36.70
47845;DHT22;33605;48.822;8.796;2023-03-11T15:33:19;7.20;36.90
47845;DHT22;33605;48.822;8.796;2023-03-11T15:35:47;17.10;20.60
47845;DHT22;33605;48.822;8.796;2023-03-11T15:38:22;16.70;20.80
47845;DHT22;33605;48.822;8.796;2023-03-11T15:41:00;16.40;20.90
47845;DHT22;33605;48.822;8.796;2023-03-11T15:43:33;16.10;21.00
47845;DHT22;33605;48.822;8.796;2023-03-11T15:46:09;15.80;21.00
47845;DHT22;33605;48.822;8.796;2023-03-11T15:48:34;15.50;21.10
47845;DHT22;33605;48.822;8.796;2023-03-11T15:51:00;15.20;21.00
47845;DHT22;33605;48.822;8.796;2023-03-11T15:53:27;14.90;21.10
47845;DHT22;33605;48.822;8.796;2023-03-11T15:55:56;14.60;21.20
47845;DHT22;33605;48.822;8.796;2023-03-11T15:58:23;14.40;21.30
47845;DHT22;33605;48.822;8.796;2023-03-11T16:00:54;14.20;21.40
47845;DHT22;33605;48.822;8.796;2023-03-11T16:03:21;14.00;21.20
47845;DHT22;33605;48.822;8.796;2023-03-11T16:05:47;13.70;21.30
47845;DHT22;33605;48.822;8.796;2023-03-11T16:08:13;13.50;21.50
47845;DHT22;33605;48.822;8.796;2023-03-11T16:10:39;13.30;21.50
47845;DHT22;33605;48.822;8.796;2023-03-11T16:13:05;13.20;21.60
47845;DHT22;33605;48.822;8.796;2023-03-11T16:15:35;13.10;21.70
47845;DHT22;33605;48.822;8.796;2023-03-11T16:18:03;12.90;21.70
47845;DHT22;33605;48.822;8.796;2023-03-11T16:20:40;12.80;21.80
47845;DHT22;33605;48.822;8.796;2023-03-11T16:23:10;12.70;21.90
47845;DHT22;33605;48.822;8.796;2023-03-11T16:25:39;12.50;21.90
47845;DHT22;33605;48.822;8.796;2023-03-11T16:28:06;12.40;22.00
47845;DHT22;33605;48.822;8.796;2023-03-11T16:30:33;12.30;22.00
47845;DHT22;33605;48.822;8.796;2023-03-11T16:32:59;12.20;22.10
47845;DHT22;33605;48.822;8.796;2023-03-11T16:35:25;12.10;22.10
47845;DHT22;33605;48.822;8.796;2023-03-11T16:37:52;12.00;22.10
47845;DHT22;33605;48.822;8.796;2023-03-11T16:40:23;11.90;22.10
47845;DHT22;33605;48.822;8.796;2023-03-11T16:42:58;11.80;22.10
47845;DHT22;33605;48.822;8.796;2023-03-11T16:45:24;11.80;22.60
47845;DHT22;33605;48.822;8.796;2023-03-11T16:47:50;11.70;22.20
47845;DHT22;33605;48.822;8.796;2023-03-11T16:50:15;11.60;22.10
47845;DHT22;33605;48.822;8.796;2023-03-11T16:52:41;11.50;22.20
47845;DHT22;33605;48.822;8.796;2023-03-11T16:55:07;11.40;22.20
47845;DHT22;33605;48.822;8.796;2023-03-11T16:57:32;11.30;22.20
47845;DHT22;33605;48.822;8.796;2023-03-11T16:59:58;11.20;22.30
47845;DHT22;33605;48.822;8.796;2023-03-11T17:02:24;11.10;22.20
47845;DHT22;33605;48.822;8.796;2023-03-11T17:04:49;11.10;22.30
47845;DHT22;33605;48.822;8.796;2023-03-11T17:07:15;11.00;22.20
47845;DHT22;33605;48.822;8.796;2023-03-11T17:09:41;10.90;22.20
47845;DHT22;33605;48.822;8.796;2023-03-11T17:12:07;10.90;22.30
47845;DHT22;33605;48.822;8.796;2023-03-11T17:14:34;10.80;22.40
47845;DHT22;33605;48.822;8.796;2023-03-11T17:16:59;10.80;22.50
47845;DHT22;33605;48.822;8.796;2023-03-11T17:19:25;10.70;22.60
47845;DHT22;33605;48.822;8.796;2023-03-11T17:21:51;10.70;22.70
47845;DHT22;33605;48.822;8.796;2023-03-11T17:24:17;10.60;22.70
47845;DHT22;33605;48.822;8.796;2023-03-11T17:26:42;10.60;22.80
47845;DHT22;33605;48.822;8.796;2023-03-11T17:29:08;10.50;22.80
47845;DHT22;33605;48.822;8.796;2023-03-11T17:31:34;10.40;22.90
47845;DHT22;33605;48.822;8.796;2023-03-11T17:33:59;10.30;23.00
47845;DHT22;33605;48.822;8.796;2023-03-11T17:36:25;10.30;23.20
47845;DHT22;33605;48.822;8.796;2023-03-11T17:38:52;10.20;23.20
47845;DHT22;33605;48.822;8.796;2023-03-11T17:41:19;10.20;23.30
47845;DHT22;33605;48.822;8.796;2023-03-11T17:43:45;10.10;23.30
47845;DHT22;33605;48.822;8.796;2023-03-11T17:46:14;10.00;23.30
47845;DHT22;33605;48.822;8.796;2023-03-11T17:48:40;9.90;24.30
47845;DHT22;33605;48.822;8.796;2023-03-11T17:51:07;9.90;24.40
47845;DHT22;33605;48.822;8.796;2023-03-11T17:53:35;9.80;24.20
47845;DHT22;33605;48.822;8.796;2023-03-11T17:56:03;9.80;24.40
47845;DHT22;33605;48.822;8.796;2023-03-11T17:58:29;9.70;24.50
47845;DHT22;33605;48.822;8.796;2023-03-11T18:00:54;9.60;24.50
47845;DHT22;33605;48.822;8.796;2023-03-11T18:03:20;9.50;24.60
47845;DHT22;33605;48.822;8.796;2023-03-11T18:05:57;9.40;24.80
47845;DHT22;33605;48.822;8.796;2023-03-11T18:08:23;9.40;25.10
47845;DHT22;33605;48.822;8.796;2023-03-11T18:10:54;9.30;25.20
47845;DHT22;33605;48.822;8.796;2023-03-11T18:13:22;9.20;25.30
47845;DHT22;33605;48.822;8.796;2023-03-11T18:16:00;9.10;25.30
47845;DHT22;33605;48.822;8.796;2023-03-11T18:18:26;9.10;25.40
47845;DHT22;33605;48.822;8.796;2023-03-11T18:20:52;9.00;25.60
47845;DHT22;33605;48.822;8.796;2023-03-11T18:23:18;8.90;25.80
47845;DHT22;33605;48.822;8.796;2023-03-11T18:25:52;8.80;25.90
47845;DHT22;33605;48.822;8.796;2023-03-11T18:28:18;8.70;26.10
47845;DHT22;33605;48.822;8.796;2023-03-11T18:30:43;8.70;26.10
47845;DHT22;33605;48.822;8.796;2023-03-11T18:33:10;8.60;26.20
47845;DHT22;33605;48.822;8.796;2023-03-11T18:35:36;8.50;26.20
47845;DHT22;33605;48.822;8.796;2023-03-11T18:38:02;8.40;26.20
47845;DHT22;33605;48.822;8.796;2023-03-11T18:40:28;8.30;26.30
47845;DHT22;33605;48.822;8.796;2023-03-11T18:42:53;8.20;26.40
47845;DHT22;33605;48.822;8.796;2023-03-11T18:45:19;8.10;26.40
47845;DHT22;33605;48.822;8.796;2023-03-11T18:47:45;8.00;26.50
47845;DHT22;33605;48.822;8.796;2023-03-11T18:50:11;7.90;26.60
47845;DHT22;33605;48.822;8.796;2023-03-11T18:52:36;7.90;26.70
47845;DHT22;33605;48.822;8.796;2023-03-11T18:55:02;7.80;26.70
47845;DHT22;33605;48.822;8.796;2023-03-11T18:57:27;7.70;26.70
47845;DHT22;33605;48.822;8.796;2023-03-11T18:59:53;7.60;26.70
47845;DHT22;33605;48.822;8.796;2023-03-11T19:02:18;7.60;26.80
47845;DHT22;33605;48.822;8.796;2023-03-11T19:04:46;7.50;26.80
47845;DHT22;33605;48.822;8.796;2023-03-11T19:07:12;7.40;27.00
47845;DHT22;33605;48.822;8.796;2023-03-11T19:09:38;7.40;27.40
47845;DHT22;33605;48.822;8.796;2023-03-11T19:12:04;7.30;27.50
47845;DHT22;33605;48.822;8.796;2023-03-11T19:14:30;7.20;27.60
47845;DHT22;33605;48.822;8.796;2023-03-11T19:16:55;7.10;27.70
47845;DHT22;33605;48.822;8.796;2023-03-11T19:19:21;7.00;27.70
47845;DHT22;33605;48.822;8.796;2023-03-11T19:21:47;7.00;27.60
47845;DHT22;33605;48.822;8.796;2023-03-11T19:24:13;6.90;27.60
47845;DHT22;33605;48.822;8.796;2023-03-11T19:26:38;6.80;27.60
47845;DHT22;33605;48.822;8.796;2023-03-11T19:29:06;6.80;27.70
47845;DHT22;33605;48.822;8.796;2023-03-11T19:31:32;6.70;27.80
47845;DHT22;33605;48.822;8.796;2023-03-11T19:33:58;6.60;27.80
47845;DHT22;33605;48.822;8.796;2023-03-11T19:36:24;6.60;27.80
47845;DHT22;33605;48.822;8.796;2023-03-11T19:38:50;6.50;27.80
47845;DHT22;33605;48.822;8.796;2023-03-11T19:41:17;6.50;27.90
47845;DHT22;33605;48.822;8.796;2023-03-11T19:43:46;6.40;27.90
47845;DHT22;33605;48.822;8.796;2023-03-11T19:46:18;6.40;27.90
47845;DHT22;33605;48.822;8.796;2023-03-11T19:48:44;6.30;27.90
47845;DHT22;33605;48.822;8.796;2023-03-11T19:51:10;6.20;27.90
47845;DHT22;33605;48.822;8.796;2023-03-11T19:53:39;6.20;28.10
47845;DHT22;33605;48.822;8.796;2023-03-11T19:56:06;6.10;28.50
47845;DHT22;33605;48.822;8.796;2023-03-11T19:58:33;6.10;28.90
47845;DHT22;33605;48.822;8.796;2023-03-11T20:00:59;6.00;29.10
47845;DHT22;33605;48.822;8.796;2023-03-11T20:03:26;5.90;29.00
47845;DHT22;33605;48.822;8.796;2023-03-11T20:05:53;5.90;28.90
47845;DHT22;33605;48.822;8.796;2023-03-11T20:08:22;5.80;28.70
47845;DHT22;33605;48.822;8.796;2023-03-11T20:10:50;5.80;28.60
47845;DHT22;33605;48.822;8.796;2023-03-11T20:13:17;5.80;28.60
47845;DHT22;33605;48.822;8.796;2023-03-11T20:15:46;5.70;28.50
47845;DHT22;33605;48.822;8.796;2023-03-11T20:18:12;5.70;28.60
47845;DHT22;33605;48.822;8.796;2023-03-11T20:20:38;5.60;28.60
47845;DHT22;33605;48.822;8.796;2023-03-11T20:23:07;5.60;28.70
47845;DHT22;33605;48.822;8.796;2023-03-11T20:25:33;5.50;28.80
47845;DHT22;33605;48.822;8.796;2023-03-11T20:27:59;5.50;28.90
47845;DHT22;33605;48.822;8.796;2023-03-11T20:30:25;5.50;29.00
47845;DHT22;33605;48.822;8.796;2023-03-11T20:32:51;5.40;29.20
47845;DHT22;33605;48.822;8.796;2023-03-11T20:35:18;5.40;29.50
47845;DHT22;33605;48.822;8.796;2023-03-11T20:37:44;5.30;29.50
47845;DHT22;33605;48.822;8.796;2023-03-11T20:40:12;5.30;29.50
47845;DHT22;33605;48.822;8.796;2023-03-11T20:42:38;5.20;29.50
47845;DHT22;33605;48.822;8.796;2023-03-11T20:45:05;5.20;29.50
47845;DHT22;33605;48.822;8.796;2023-03-11T20:47:32;5.20;29.70
47845;DHT22;33605;48.822;8.796;2023-03-11T20:49:57;5.10;29.80
47845;DHT22;33605;48.822;8.796;2023-03-11T20:52:23;5.10;29.90
47845;DHT22;33605;48.822;8.796;2023-03-11T20:54:49;5.10;29.90
47845;DHT22;33605;48.822;8.796;2023-03-11T20:57:15;5.00;29.80
47845;DHT22;33605;48.822;8.796;2023-03-11T20:59:40;5.00;29.80
47845;DHT22;33605;48.822;8.796;2023-03-11T21:02:09;5.00;29.80
47845;DHT22;33605;48.822;8.796;2023-03-11T21:04:35;4.90;29.90
47845;DHT22;33605;48.822;8.796;2023-03-11T21:07:05;4.90;30.00
47845;DHT22;33605;48.822;8.796;2023-03-11T21:09:31;4.90;30.20
47845;DHT22;33605;48.822;8.796;2023-03-11T21:11:57;4.80;30.20
47845;DHT22;33605;48.822;8.796;2023-03-11T21:14:23;4.80;30.30
47845;DHT22;33605;48.822;8.796;2023-03-11T21:16:49;4.80;30.30
47845;DHT22;33605;48.822;8.796;2023-03-11T21:19:15;4.70;30.20
47845;DHT22;33605;48.822;8.796;2023-03-11T21:21:41;4.70;30.40
47845;DHT22;33605;48.822;8.796;2023-03-11T21:24:08;4.70;30.60
47845;DHT22;33605;48.822;8.796;2023-03-11T21:26:34;4.70;30.60
47845;DHT22;33605;48.822;8.796;2023-03-11T21:28:59;4.60;30.60
47845;DHT22;33605;48.822;8.796;2023-03-11T21:31:25;4.60;30.70
47845;DHT22;33605;48.822;8.796;2023-03-11T21:33:53;4.60;30.90
47845;DHT22;33605;48.822;8.796;2023-03-11T21:36:19;4.50;31.60
47845;DHT22;33605;48.822;8.796;2023-03-11T21:38:47;4.50;31.20
47845;DHT22;33605;48.822;8.796;2023-03-11T21:41:19;4.50;31.40
47845;DHT22;33605;48.822;8.796;2023-03-11T21:43:46;4.50;31.40
47845;DHT22;33605;48.822;8.796;2023-03-11T21:46:14;4.40;31.40
47845;DHT22;33605;48.822;8.796;2023-03-11T21:48:41;4.40;31.60
47845;DHT22;33605;48.822;8.796;2023-03-11T21:51:06;4.30;32.20
47845;DHT22;33605;48.822;8.796;2023-03-11T21:53:32;4.30;31.70
47845;DHT22;33605;48.822;8.796;2023-03-11T21:55:58;4.30;31.80
47845;DHT22;33605;48.822;8.796;2023-03-11T21:58:25;4.30;31.80
47845;DHT22;33605;48.822;8.796;2023-03-11T22:00:51;4.30;31.80
47845;DHT22;33605;48.822;8.796;2023-03-11T22:03:16;4.30;32.50
47845;DHT22;33605;48.822;8.796;2023-03-11T22:05:42;4.30;31.90
47845;DHT22;33605;48.822;8.796;2023-03-11T22:08:08;4.30;31.90
47845;DHT22;33605;48.822;8.796;2023-03-11T22:10:33;4.30;32.60
47845;DHT22;33605;48.822;8.796;2023-03-11T22:12:59;4.20;32.00
47845;DHT22;33605;48.822;8.796;2023-03-11T22:15:25;4.20;32.30
47845;DHT22;33605;48.822;8.796;2023-03-11T22:17:50;4.20;32.70
47845;DHT22;33605;48.822;8.796;2023-03-11T22:20:16;4.20;32.80
47845;DHT22;33605;48.822;8.796;2023-03-11T22:22:42;4.10;32.80
47845;DHT22;33605;48.822;8.796;2023-03-11T22:25:08;4.10;32.80
47845;DHT22;33605;48.822;8.796;2023-03-11T22:27:34;4.10;32.80
47845;DHT22;33605;48.822;8.796;2023-03-11T22:29:59;4.10;33.00